createdAt,value
2022-11-10T00:01:27.976Z,5.68
2022-11-10T00:04:48.739Z,5.43
2022-11-10T00:08:11.381Z,5.20
2022-11-10T00:11:31.616Z,4.63
2022-11-10T00:15:10.521Z,5.63
2022-11-10T00:18:30.695Z,4.32
2022-11-10T00:21:50.768Z,4.43
2022-11-10T00:25:12.451Z,4.85
2022-11-10T00:28:32.595Z,4.55
2022-11-10T00:31:52.929Z,6.53
2022-11-10T00:35:13.375Z,4.22
2022-11-10T00:38:33.547Z,4.30
2022-11-10T00:41:53.408Z,3.60
2022-11-10T00:45:13.847Z,4.28
2022-11-10T00:48:34.325Z,3.75
2022-11-10T00:51:54.827Z,4.72
2022-11-10T00:55:15.248Z,4.07
2022-11-10T00:58:35.633Z,3.38
2022-11-10T01:01:55.847Z,4.03
2022-11-10T01:05:16.224Z,4.57
2022-11-10T01:08:37.182Z,7.72
2022-11-10T01:11:57.533Z,4.63
2022-11-10T01:15:18.201Z,4.43
2022-11-10T01:18:40.417Z,3.88
2022-11-10T01:22:01.079Z,4.07
2022-11-10T01:25:21.281Z,4.05
2022-11-10T01:28:41.978Z,4.45
2022-11-10T01:32:02.103Z,3.92
2022-11-10T01:35:22.452Z,4.07
2022-11-10T01:38:42.978Z,3.38
2022-11-10T01:42:03.312Z,4.47
2022-11-10T01:45:23.514Z,4.47
2022-11-10T01:49:00.187Z,3.50
2022-11-10T01:52:20.481Z,4.50
2022-11-10T01:55:43.767Z,4.95
2022-11-10T01:59:09.894Z,3.10
2022-11-10T02:02:42.924Z,4.15
2022-11-10T02:06:04.322Z,4.63
2022-11-10T02:09:25.199Z,3.92
2022-11-10T02:12:46.514Z,3.30
2022-11-10T02:16:07.076Z,3.78
2022-11-10T02:19:27.862Z,4.82
2022-11-10T02:22:48.220Z,4.50
2022-11-10T02:26:08.543Z,3.47
2022-11-10T02:29:28.846Z,3.55
2022-11-10T02:32:49.039Z,3.75
2022-11-10T02:36:09.645Z,4.28
2022-11-10T02:39:30.013Z,3.03
2022-11-10T02:42:50.359Z,3.63
2022-11-10T02:46:10.629Z,3.65
2022-11-10T02:49:30.864Z,4.78
2022-11-10T02:52:51.046Z,3.55
2022-11-10T02:56:11.859Z,3.30
2022-11-10T02:59:31.940Z,3.60
2022-11-10T03:03:02.090Z,3.25
2022-11-10T03:06:22.440Z,3.25
2022-11-10T03:09:42.842Z,3.70
2022-11-10T03:13:03.521Z,5.20
2022-11-10T03:16:23.416Z,3.45
2022-11-10T03:19:43.674Z,3.92
2022-11-10T03:23:04.491Z,3.38
2022-11-10T03:26:24.813Z,3.92
2022-11-10T03:29:45.021Z,4.70
2022-11-10T03:33:06.033Z,3.95
2022-11-10T03:36:26.053Z,3.83
2022-11-10T03:39:46.197Z,3.28
2022-11-10T03:43:06.466Z,3.28
2022-11-10T03:46:26.634Z,3.20
2022-11-10T03:49:46.794Z,2.95
2022-11-10T03:53:07.120Z,3.78
2022-11-10T03:56:27.166Z,4.13
2022-11-10T03:59:47.170Z,3.28
2022-11-10T04:03:07.175Z,3.75
2022-11-10T04:06:46.058Z,3.13
2022-11-10T04:10:07.056Z,3.10
2022-11-10T04:13:45.947Z,3.15
2022-11-10T04:17:06.369Z,3.33
2022-11-10T04:20:26.485Z,3.22
2022-11-10T04:23:46.365Z,3.25
2022-11-10T04:27:06.127Z,3.70
2022-11-10T04:30:26.375Z,3.95
2022-11-10T04:33:47.668Z,3.92
2022-11-10T04:37:07.761Z,3.03
2022-11-10T04:40:27.652Z,3.03
2022-11-10T04:43:47.800Z,2.80
2022-11-10T04:47:11.667Z,2.90
2022-11-10T04:50:32.449Z,3.38
2022-11-10T04:53:52.635Z,3.50
2022-11-10T04:57:13.069Z,3.45
2022-11-10T05:00:34.446Z,3.20
2022-11-10T05:03:55.659Z,3.20
2022-11-10T05:07:15.839Z,3.00
2022-11-10T05:10:37.490Z,3.00
2022-11-10T05:13:57.465Z,3.30
2022-11-10T05:17:17.769Z,2.70
2022-11-10T05:20:37.979Z,4.35
2022-11-10T05:23:58.139Z,2.92
2022-11-10T05:27:18.077Z,2.92
2022-11-10T05:30:39.572Z,3.47
2022-11-10T05:33:59.732Z,4.82
2022-11-10T05:37:19.854Z,3.28
2022-11-10T05:40:40.072Z,3.00
2022-11-10T05:43:59.959Z,3.58
2022-11-10T05:47:20.241Z,3.55
2022-11-10T05:50:40.611Z,3.17
2022-11-10T05:54:00.897Z,3.65
2022-11-10T05:57:21.879Z,2.85
2022-11-10T06:00:42.082Z,3.22
2022-11-10T06:04:02.296Z,3.63
2022-11-10T06:07:22.455Z,3.58
2022-11-10T06:10:42.400Z,3.17
2022-11-10T06:14:02.498Z,4.28
2022-11-10T06:17:22.850Z,3.78
2022-11-10T06:20:42.692Z,3.60
2022-11-10T06:24:02.864Z,2.78
2022-11-10T06:27:23.001Z,3.22
2022-11-10T06:30:43.063Z,3.30
2022-11-10T06:34:03.296Z,2.92
2022-11-10T06:37:23.474Z,3.88
2022-11-10T06:40:43.669Z,2.97
2022-11-10T06:44:03.829Z,2.58
2022-11-10T06:47:23.750Z,3.63
2022-11-10T06:50:44.015Z,4.90
2022-11-10T06:54:04.261Z,6.25
2022-11-10T06:57:24.408Z,3.50
2022-11-10T07:00:44.559Z,6.38
2022-11-10T07:04:19.127Z,3.92
2022-11-10T07:07:39.925Z,3.10
2022-11-10T07:11:00.168Z,5.95
2022-11-10T07:14:20.221Z,3.33
2022-11-10T07:17:41.061Z,5.68
2022-11-10T07:21:06.012Z,3.35
2022-11-10T07:24:26.427Z,3.65
2022-11-10T07:27:46.641Z,3.80
2022-11-10T07:31:06.616Z,3.92
2022-11-10T07:34:26.612Z,4.35
2022-11-10T07:37:46.700Z,4.85
2022-11-10T07:41:06.757Z,3.30
2022-11-10T07:44:27.727Z,4.60
2022-11-10T07:47:48.082Z,3.63
2022-11-10T07:51:08.507Z,3.38
2022-11-10T07:54:28.598Z,3.47
2022-11-10T07:57:48.834Z,4.75
2022-11-10T08:01:10.101Z,4.07
2022-11-10T08:04:30.057Z,5.97
2022-11-10T08:07:50.155Z,5.57
2022-11-10T08:11:10.321Z,3.20
2022-11-10T08:14:30.275Z,3.78
2022-11-10T08:17:50.521Z,3.30
2022-11-10T08:21:10.848Z,3.30
2022-11-10T08:24:31.293Z,3.88
2022-11-10T08:27:57.921Z,3.33
2022-11-10T08:31:18.228Z,4.40
2022-11-10T08:34:38.422Z,3.15
2022-11-10T08:37:58.449Z,3.53
2022-11-10T08:41:18.801Z,3.63
2022-11-10T08:44:39.012Z,4.78
2022-11-10T08:48:05.187Z,4.28
2022-11-10T08:51:25.113Z,4.32
2022-11-10T08:54:45.094Z,3.92
2022-11-10T08:58:06.523Z,5.05
2022-11-10T09:01:26.824Z,3.03
2022-11-10T09:04:47.216Z,5.60
2022-11-10T09:08:07.936Z,3.75
2022-11-10T09:11:27.900Z,4.20
2022-11-10T09:14:48.204Z,3.85
2022-11-10T09:18:10.164Z,3.67
2022-11-10T09:21:30.605Z,3.30
2022-11-10T09:24:50.702Z,3.08
2022-11-10T09:28:14.425Z,4.38
2022-11-10T09:31:34.458Z,3.17
2022-11-10T09:34:54.301Z,3.10
2022-11-10T09:38:14.541Z,3.20
2022-11-10T09:41:40.241Z,4.95
2022-11-10T09:45:04.926Z,3.53
2022-11-10T09:48:32.812Z,3.22
2022-11-10T09:51:53.850Z,3.15
2022-11-10T09:55:48.939Z,3.83
2022-11-10T09:59:30.507Z,4.43
2022-11-10T10:03:01.931Z,3.90
2022-11-10T10:06:22.539Z,4.65
2022-11-10T10:10:01.433Z,3.72
2022-11-10T10:13:36.416Z,4.95
2022-11-10T10:17:17.994Z,3.63
2022-11-10T10:20:47.128Z,4.65
2022-11-10T10:24:21.491Z,3.28
2022-11-10T10:27:45.163Z,3.60
2022-11-10T10:31:39.649Z,4.22
2022-11-10T10:34:59.677Z,4.57
2022-11-10T10:38:35.764Z,24.42
2022-11-10T10:41:55.739Z,31.40
2022-11-10T10:45:29.757Z,37.38
2022-11-10T10:49:32.994Z,54.10
2022-11-10T10:53:19.650Z,45.88
2022-11-10T10:56:39.796Z,55.25
2022-11-10T11:00:15.494Z,47.90
2022-11-10T11:03:38.707Z,46.50
2022-11-10T11:07:04.723Z,41.55
2022-11-10T11:10:35.447Z,43.92
2022-11-10T11:14:12.909Z,37.50
2022-11-10T11:17:32.846Z,39.03
2022-11-10T11:21:20.144Z,38.47
2022-11-10T11:25:06.247Z,42.00
2022-11-10T11:28:41.243Z,41.83
2022-11-10T11:32:39.330Z,35.53
2022-11-10T11:36:18.155Z,28.95
2022-11-10T11:40:00.116Z,33.97
2022-11-10T11:43:28.525Z,34.22
2022-11-10T11:47:19.856Z,35.38
2022-11-10T11:51:01.295Z,26.08
2022-11-10T11:54:24.079Z,28.08
2022-11-10T11:58:02.808Z,25.02
2022-11-10T12:01:43.895Z,28.80
2022-11-10T12:05:25.854Z,21.92
2022-11-10T12:08:46.387Z,25.70
2022-11-10T12:12:26.947Z,24.25
2022-11-10T12:15:58.771Z,29.42
2022-11-10T12:19:38.944Z,24.60
2022-11-10T12:23:10.027Z,19.52
2022-11-10T12:26:35.198Z,29.70
2022-11-10T12:29:59.481Z,23.90
2022-11-10T12:33:45.002Z,22.88
2022-11-10T12:37:07.641Z,23.33
2022-11-10T12:40:36.976Z,22.83
2022-11-10T12:44:00.164Z,25.92
2022-11-10T12:47:22.767Z,22.52
2022-11-10T12:50:53.886Z,26.15
2022-11-10T12:54:17.468Z,21.20
2022-11-10T12:57:38.357Z,28.35
2022-11-10T13:01:06.860Z,24.65
2022-11-10T13:04:27.731Z,23.60
2022-11-10T13:07:50.350Z,27.75
2022-11-10T13:11:13.635Z,20.35
2022-11-10T13:14:34.479Z,21.27
2022-11-10T13:17:55.531Z,17.33
2022-11-10T13:21:15.886Z,19.27
2022-11-10T13:24:42.307Z,22.40
2022-11-10T13:28:03.841Z,18.08
2022-11-10T13:31:27.032Z,23.48
2022-11-10T13:34:47.643Z,22.35
2022-11-10T13:38:34.269Z,18.70
2022-11-10T13:42:23.900Z,20.25
2022-11-10T13:45:45.752Z,18.88
2022-11-10T13:49:43.415Z,18.60
2022-11-10T13:53:23.099Z,16.23
2022-11-10T13:57:08.842Z,16.77
2022-11-10T14:00:31.799Z,18.20
2022-11-10T14:03:55.582Z,11.45
2022-11-10T14:07:19.461Z,16.67
2022-11-10T14:10:47.271Z,18.75
2022-11-10T14:14:39.613Z,15.15
2022-11-10T14:18:00.679Z,16.05
2022-11-10T14:21:36.177Z,12.80
2022-11-10T14:25:20.757Z,13.65
2022-11-10T14:28:41.130Z,13.40
2022-11-10T14:32:19.963Z,15.10
2022-11-10T14:35:49.482Z,12.70
2022-11-10T14:39:09.682Z,15.52
2022-11-10T14:42:32.307Z,13.73
2022-11-10T14:45:55.131Z,10.75
2022-11-10T14:49:21.581Z,13.27
2022-11-10T14:52:43.823Z,12.27
2022-11-10T14:56:15.132Z,13.98
2022-11-10T14:59:37.620Z,10.95
2022-11-10T15:02:58.381Z,14.23
2022-11-10T15:06:19.791Z,9.98
2022-11-10T15:09:41.230Z,11.43
2022-11-10T15:13:17.454Z,12.82
2022-11-10T15:16:38.522Z,11.80
2022-11-10T15:19:58.778Z,10.93
2022-11-10T15:23:33.463Z,10.55
2022-11-10T15:26:54.257Z,9.98
2022-11-10T15:30:23.310Z,9.40
2022-11-10T15:33:51.548Z,10.15
2022-11-10T15:37:20.467Z,9.52
2022-11-10T15:40:52.323Z,10.90
2022-11-10T15:44:25.781Z,11.52
2022-11-10T15:47:46.075Z,9.40
2022-11-10T15:51:08.709Z,9.82
2022-11-10T15:54:33.669Z,8.95
2022-11-10T15:57:53.881Z,7.25
2022-11-10T16:01:15.451Z,11.27
2022-11-10T16:04:35.737Z,11.55
2022-11-10T16:07:55.693Z,9.00
2022-11-10T16:11:20.911Z,10.27
2022-11-10T16:14:43.788Z,11.35
2022-11-10T16:18:04.401Z,8.25
2022-11-10T16:21:25.991Z,8.23
2022-11-10T16:24:45.922Z,6.38
2022-11-10T16:28:06.484Z,9.73
2022-11-10T16:31:27.697Z,10.52
2022-11-10T16:34:47.731Z,9.32
2022-11-10T16:38:18.444Z,8.63
2022-11-10T16:41:38.861Z,8.75
2022-11-10T16:44:59.207Z,9.60
2022-11-10T16:48:23.203Z,8.20
2022-11-10T16:51:48.859Z,8.68
2022-11-10T16:55:13.826Z,8.75
2022-11-10T16:58:33.962Z,7.53
2022-11-10T17:01:54.591Z,11.70
2022-11-10T17:05:15.623Z,8.68
2022-11-10T17:08:36.111Z,7.78
2022-11-10T17:11:56.268Z,9.05
2022-11-10T17:15:16.830Z,6.85
2022-11-10T17:18:37.533Z,6.47
2022-11-10T17:21:57.478Z,7.97
2022-11-10T17:25:26.885Z,10.48
2022-11-10T17:28:47.051Z,9.25
2022-11-10T17:32:07.337Z,11.07
2022-11-10T17:35:27.401Z,10.85
2022-11-10T17:38:47.820Z,11.43
2022-11-10T17:42:13.469Z,13.05
2022-11-10T17:45:33.545Z,11.38
2022-11-10T17:49:00.107Z,9.07
2022-11-10T17:52:22.618Z,11.60
2022-11-10T17:55:42.683Z,8.65
2022-11-10T17:59:02.565Z,9.18
2022-11-10T18:02:22.442Z,12.25
2022-11-10T18:05:43.069Z,10.88
2022-11-10T18:09:03.030Z,10.10
2022-11-10T18:12:27.747Z,10.55
2022-11-10T18:15:48.867Z,7.45
2022-11-10T18:19:11.096Z,9.63
2022-11-10T18:22:31.450Z,8.63
2022-11-10T18:25:51.537Z,10.30
2022-11-10T18:29:11.792Z,9.05
2022-11-10T18:32:32.217Z,9.60
2022-11-10T18:35:52.502Z,10.30
2022-11-10T18:39:12.751Z,8.98
2022-11-10T18:42:34.311Z,12.27
2022-11-10T18:45:54.605Z,8.02
2022-11-10T18:49:15.653Z,8.65
2022-11-10T18:52:35.955Z,7.10
2022-11-10T18:55:56.146Z,8.20
2022-11-10T18:59:16.282Z,7.40
2022-11-10T19:02:36.176Z,9.05
2022-11-10T19:05:59.690Z,6.50
2022-11-10T19:09:19.808Z,12.27
2022-11-10T19:12:40.018Z,6.47
2022-11-10T19:16:04.484Z,6.57
2022-11-10T19:19:24.916Z,7.57
2022-11-10T19:22:45.102Z,6.95
2022-11-10T19:26:17.877Z,7.78
2022-11-10T19:29:41.238Z,9.57
2022-11-10T19:33:01.534Z,7.47
2022-11-10T19:36:26.613Z,7.55
2022-11-10T19:39:46.565Z,7.93
2022-11-10T19:43:06.620Z,6.03
2022-11-10T19:46:29.504Z,7.63
2022-11-10T19:49:49.606Z,6.15
2022-11-10T19:53:09.482Z,5.43
2022-11-10T19:56:33.474Z,5.00
2022-11-10T19:59:53.635Z,7.40
2022-11-10T20:03:14.834Z,5.50
2022-11-10T20:06:34.769Z,6.55
2022-11-10T20:09:55.699Z,11.07
2022-11-10T20:13:15.522Z,4.40
2022-11-10T20:16:35.408Z,5.65
2022-11-10T20:19:55.757Z,5.45
2022-11-10T20:23:16.704Z,6.88
2022-11-10T20:26:36.937Z,6.55
2022-11-10T20:29:57.261Z,7.07
2022-11-10T20:33:17.427Z,4.93
2022-11-10T20:36:37.320Z,5.97
2022-11-10T20:39:57.304Z,6.10
2022-11-10T20:43:18.447Z,5.90
2022-11-10T20:46:55.401Z,5.45
2022-11-10T20:50:19.287Z,5.93
2022-11-10T20:53:43.315Z,6.10
2022-11-10T20:57:03.459Z,6.32
2022-11-10T21:00:23.757Z,5.45
2022-11-10T21:03:43.976Z,5.70
2022-11-10T21:07:04.719Z,5.53
2022-11-10T21:10:24.891Z,5.35
2022-11-10T21:13:44.939Z,4.60
2022-11-10T21:17:05.003Z,7.00
2022-11-10T21:20:25.157Z,4.32
2022-11-10T21:23:45.025Z,4.53
2022-11-10T21:27:05.045Z,6.03
2022-11-10T21:30:25.308Z,6.28
2022-11-10T21:33:45.599Z,5.47
2022-11-10T21:37:05.542Z,5.03
2022-11-10T21:40:25.688Z,5.38
2022-11-10T21:43:45.653Z,4.43
2022-11-10T21:47:06.021Z,4.72
2022-11-10T21:50:26.430Z,4.30
2022-11-10T21:53:46.273Z,4.18
2022-11-10T21:57:06.391Z,3.92
2022-11-10T22:00:26.753Z,4.05
2022-11-10T22:03:46.997Z,5.15
2022-11-10T22:07:23.426Z,5.25
2022-11-10T22:11:02.438Z,4.18
2022-11-10T22:14:41.417Z,3.88
2022-11-10T22:18:20.807Z,5.65
2022-11-10T22:21:41.096Z,4.97
2022-11-10T22:25:01.243Z,3.92
2022-11-10T22:28:21.298Z,4.15
2022-11-10T22:31:41.694Z,3.97
2022-11-10T22:35:01.908Z,3.80
2022-11-10T22:38:21.974Z,3.88
2022-11-10T22:42:00.554Z,3.70
2022-11-10T22:45:20.777Z,3.85
2022-11-10T22:48:40.710Z,5.40
2022-11-10T22:52:01.276Z,5.28
2022-11-10T22:55:21.495Z,4.30
2022-11-10T22:58:41.669Z,3.60
2022-11-10T23:02:01.642Z,4.85
2022-11-10T23:05:21.808Z,4.10
2022-11-10T23:08:41.920Z,4.10
2022-11-10T23:12:02.247Z,3.90
2022-11-10T23:15:23.684Z,4.53
2022-11-10T23:18:46.283Z,3.25
2022-11-10T23:22:06.283Z,3.70
2022-11-10T23:25:26.174Z,4.65
2022-11-10T23:28:46.747Z,3.67
2022-11-10T23:32:06.831Z,3.10
2022-11-10T23:35:26.747Z,4.03
2022-11-10T23:38:48.653Z,3.20
2022-11-10T23:42:09.157Z,3.90
2022-11-10T23:45:52.670Z,2.60
2022-11-10T23:49:09.252Z,3.53
2022-11-10T23:52:29.117Z,2.58
2022-11-10T23:55:59.212Z,4.15
2022-11-10T23:59:19.397Z,4.15
